createdAt,value
2022-10-26T00:00:59.259Z,9.80
2022-10-26T00:06:14.770Z,9.60
2022-10-26T00:11:20.904Z,9.50
2022-10-26T00:16:28.650Z,9.50
2022-10-26T00:21:34.492Z,9.50
2022-10-26T00:26:40.617Z,9.60
2022-10-26T00:31:45.933Z,9.60
2022-10-26T00:36:51.114Z,9.70
2022-10-26T00:41:56.310Z,9.80
2022-10-26T00:47:01.529Z,9.90
2022-10-26T00:52:10.607Z,10.10
2022-10-26T00:57:19.516Z,10.20
2022-10-26T01:02:25.287Z,10.40
2022-10-26T01:07:30.640Z,10.50
2022-10-26T01:12:35.785Z,10.70
2022-10-26T01:18:02.506Z,10.70
2022-10-26T01:23:13.508Z,10.80
2022-10-26T01:28:42.935Z,10.80
2022-10-26T01:33:54.149Z,10.80
2022-10-26T01:39:05.417Z,10.80
2022-10-26T01:44:13.580Z,10.70
2022-10-26T01:49:21.729Z,10.70
2022-10-26T01:54:27.078Z,10.70
2022-10-26T01:59:38.375Z,10.80
2022-10-26T02:05:04.850Z,10.80
2022-10-26T02:10:24.975Z,10.80
2022-10-26T02:15:41.804Z,10.80
2022-10-26T02:20:50.007Z,10.70
2022-10-26T02:25:58.530Z,10.80
2022-10-26T02:31:06.372Z,10.80
2022-10-26T02:36:14.550Z,10.80
2022-10-26T02:41:23.492Z,10.80
2022-10-26T02:46:30.057Z,10.80
2022-10-26T02:57:04.104Z,10.80
2022-10-26T03:02:09.758Z,10.80
2022-10-26T03:07:16.554Z,10.80
2022-10-26T03:12:21.772Z,10.70
2022-10-26T03:17:26.982Z,10.70
2022-10-26T03:22:32.191Z,10.70
2022-10-26T03:27:38.118Z,10.70
2022-10-26T03:32:43.222Z,10.70
2022-10-26T03:37:48.808Z,10.70
2022-10-26T03:42:54.217Z,10.60
2022-10-26T03:47:59.506Z,10.60
2022-10-26T03:53:05.114Z,10.60
2022-10-26T03:58:10.813Z,10.60
2022-10-26T04:03:16.180Z,10.60
2022-10-26T04:08:22.045Z,10.60
2022-10-26T04:13:27.256Z,10.60
2022-10-26T04:18:32.482Z,10.60
2022-10-26T04:23:37.726Z,10.60
2022-10-26T04:28:51.325Z,10.60
2022-10-26T04:33:55.373Z,10.60
2022-10-26T04:39:01.400Z,10.50
2022-10-26T04:44:07.333Z,10.50
2022-10-26T04:49:15.812Z,10.50
2022-10-26T04:54:22.185Z,10.50
2022-10-26T04:59:30.300Z,10.50
2022-10-26T05:04:38.356Z,10.40
2022-10-26T05:09:45.656Z,10.40
2022-10-26T05:14:51.973Z,10.40
2022-10-26T05:19:59.723Z,10.40
2022-10-26T05:25:07.275Z,10.30
2022-10-26T05:30:13.037Z,10.30
2022-10-26T05:35:19.208Z,10.40
2022-10-26T05:40:25.285Z,10.40
2022-10-26T05:45:31.127Z,10.40
2022-10-26T05:50:39.108Z,10.30
2022-10-26T05:55:44.839Z,10.30
2022-10-26T06:01:01.992Z,10.30
2022-10-26T06:06:13.001Z,10.30
2022-10-26T06:11:21.694Z,10.20
2022-10-26T06:16:36.487Z,10.30
2022-10-26T06:22:05.931Z,10.20
2022-10-26T06:27:24.769Z,10.20
2022-10-26T06:32:34.567Z,10.20
2022-10-26T06:37:48.636Z,10.20
2022-10-26T06:43:02.664Z,10.20
2022-10-26T06:48:12.082Z,10.20
2022-10-26T06:53:26.209Z,10.20
2022-10-26T06:58:38.257Z,10.20
2022-10-26T07:03:48.397Z,10.10
2022-10-26T07:08:53.695Z,10.10
2022-10-26T07:13:58.862Z,10.10
2022-10-26T07:19:07.839Z,10.20
2022-10-26T07:29:50.035Z,10.40
2022-10-26T07:35:01.164Z,10.50
2022-10-26T07:40:08.967Z,10.60
2022-10-26T07:45:15.071Z,10.60
2022-10-26T07:50:21.159Z,10.60
2022-10-26T07:55:27.850Z,10.60
2022-10-26T08:00:33.923Z,10.70
2022-10-26T08:05:39.327Z,10.80
2022-10-26T08:10:46.057Z,10.80
2022-10-26T08:15:51.531Z,10.80
2022-10-26T08:21:01.898Z,10.80
2022-10-26T08:26:05.233Z,10.90
2022-10-26T08:31:10.574Z,10.90
2022-10-26T08:36:19.231Z,11.00
2022-10-26T08:41:37.240Z,11.10
2022-10-26T08:46:45.903Z,11.20
2022-10-26T08:51:54.089Z,11.20
2022-10-26T08:57:02.299Z,11.40
2022-10-26T09:02:15.901Z,11.50
2022-10-26T09:07:26.921Z,11.60
2022-10-26T09:12:44.284Z,11.60
2022-10-26T09:17:55.361Z,11.60
2022-10-26T09:23:32.247Z,11.60
2022-10-26T09:28:39.903Z,11.70
2022-10-26T09:33:46.544Z,11.80
2022-10-26T09:39:16.914Z,11.80
2022-10-26T09:44:33.123Z,11.90
2022-10-26T09:49:50.043Z,12.10
2022-10-26T09:54:59.330Z,12.20
2022-10-26T10:00:12.883Z,12.30
2022-10-26T10:05:50.901Z,12.30
2022-10-26T10:11:03.827Z,12.20
2022-10-26T10:16:15.316Z,12.20
2022-10-26T10:21:22.259Z,12.20
2022-10-26T10:26:31.696Z,12.30
2022-10-26T10:31:39.311Z,12.30
2022-10-26T10:36:44.616Z,12.40
2022-10-26T10:41:55.570Z,12.60
2022-10-26T10:53:44.346Z,12.90
2022-10-26T10:59:27.170Z,13.10
2022-10-26T11:10:37.581Z,13.20
2022-10-26T11:16:10.408Z,13.30
2022-10-26T11:21:37.900Z,13.30
2022-10-26T11:27:06.891Z,13.30
2022-10-26T11:37:50.916Z,13.30
2022-10-26T11:43:14.094Z,13.40
2022-10-26T11:48:31.293Z,13.50
2022-10-26T11:53:39.470Z,13.60
2022-10-26T11:58:46.776Z,13.70
2022-10-26T12:03:55.106Z,13.80
2022-10-26T12:09:15.297Z,13.70
2022-10-26T12:14:26.563Z,13.70
2022-10-26T12:19:37.104Z,13.60
2022-10-26T12:24:50.726Z,13.70
2022-10-26T12:30:15.216Z,13.60
2022-10-26T12:35:39.893Z,13.60
2022-10-26T12:40:46.129Z,13.80
2022-10-26T12:46:17.546Z,13.80
2022-10-26T12:51:25.730Z,13.90
2022-10-26T12:56:41.302Z,13.90
2022-10-26T13:01:58.618Z,13.90
2022-10-26T13:07:24.866Z,13.90
2022-10-26T13:12:32.991Z,13.90
2022-10-26T13:17:38.240Z,13.90
2022-10-26T13:22:48.937Z,13.90
2022-10-26T13:28:08.338Z,13.80
2022-10-26T13:33:25.728Z,13.80
2022-10-26T13:38:36.175Z,13.80
2022-10-26T13:43:42.967Z,13.80
2022-10-26T13:48:49.369Z,13.70
2022-10-26T13:53:59.415Z,13.80
2022-10-26T13:59:13.045Z,13.70
2022-10-26T14:04:31.231Z,13.60
2022-10-26T14:09:37.199Z,13.60
2022-10-26T14:14:43.045Z,13.60
2022-10-26T14:19:49.327Z,13.60
2022-10-26T14:25:21.009Z,13.50
2022-10-26T14:30:30.837Z,13.50
2022-10-26T14:35:36.499Z,13.50
2022-10-26T14:40:41.785Z,13.40
2022-10-26T14:45:52.567Z,13.40
2022-10-26T14:51:06.461Z,13.20
2022-10-26T14:56:38.692Z,13.10
2022-10-26T15:02:01.790Z,13.10
2022-10-26T15:07:15.843Z,13.00
2022-10-26T15:12:30.006Z,13.00
2022-10-26T15:17:40.686Z,12.90
2022-10-26T15:22:54.894Z,12.80
2022-10-26T15:28:17.632Z,12.70
2022-10-26T15:33:23.067Z,12.60
2022-10-26T15:38:31.218Z,12.30
2022-10-26T15:43:34.984Z,12.10
2022-10-26T15:48:40.741Z,11.80
2022-10-26T15:53:50.677Z,11.60
2022-10-26T15:59:00.752Z,11.40
2022-10-26T16:04:11.534Z,11.20
2022-10-26T16:09:20.358Z,11.00
2022-10-26T16:14:27.593Z,10.90
2022-10-26T16:19:33.694Z,10.80
2022-10-26T16:24:39.335Z,10.70
2022-10-26T16:29:44.533Z,10.60
2022-10-26T16:34:49.720Z,10.50
2022-10-26T16:40:02.393Z,10.40
2022-10-26T16:45:15.177Z,10.20
2022-10-26T16:50:23.438Z,10.10
2022-10-26T16:55:35.135Z,10.00
2022-10-26T17:00:41.222Z,9.80
2022-10-26T17:05:46.428Z,9.70
2022-10-26T17:10:53.931Z,9.60
2022-10-26T17:16:14.098Z,9.50
2022-10-26T17:21:22.942Z,9.40
2022-10-26T17:26:29.859Z,9.30
2022-10-26T17:31:38.469Z,9.20
2022-10-26T17:36:46.491Z,9.10
2022-10-26T17:41:51.598Z,9.00
2022-10-26T17:47:00.105Z,8.90
2022-10-26T17:52:06.803Z,8.80
2022-10-26T17:57:11.968Z,8.80
2022-10-26T18:02:18.785Z,8.80
2022-10-26T18:07:24.141Z,8.70
2022-10-26T18:12:29.285Z,8.60
2022-10-26T18:17:35.675Z,8.70
2022-10-26T18:22:42.633Z,8.60
2022-10-26T18:27:47.761Z,8.70
2022-10-26T18:32:54.819Z,8.60
2022-10-26T18:38:01.012Z,8.50
2022-10-26T18:43:06.151Z,8.40
2022-10-26T18:48:15.129Z,8.40
2022-10-26T18:53:23.384Z,8.30
2022-10-26T18:58:43.931Z,8.30
2022-10-26T19:03:51.282Z,8.40
2022-10-26T19:08:58.688Z,8.40
2022-10-26T19:14:22.398Z,8.30
2022-10-26T19:19:27.656Z,8.30
2022-10-26T19:24:34.740Z,8.20
2022-10-26T19:29:43.146Z,8.30
2022-10-26T19:34:49.976Z,8.30
2022-10-26T19:39:55.375Z,8.40
2022-10-26T19:45:00.748Z,8.40
2022-10-26T19:50:08.187Z,8.40
2022-10-26T19:55:17.873Z,8.50
2022-10-26T20:00:44.647Z,8.50
2022-10-26T20:05:50.989Z,8.50
2022-10-26T20:10:58.709Z,8.50
2022-10-26T20:16:10.626Z,8.50
2022-10-26T20:21:25.584Z,8.50
2022-10-26T20:26:45.396Z,8.40
2022-10-26T20:31:53.859Z,8.30
2022-10-26T20:36:57.442Z,8.30
2022-10-26T20:42:03.139Z,8.30
2022-10-26T20:47:10.587Z,8.20
2022-10-26T20:52:21.758Z,8.20
2022-10-26T20:57:28.925Z,8.10
2022-10-26T21:02:34.180Z,8.10
2022-10-26T21:07:39.290Z,8.10
2022-10-26T21:12:45.658Z,8.10
2022-10-26T21:17:50.872Z,8.10
2022-10-26T21:22:56.942Z,8.10
2022-10-26T21:28:02.160Z,8.10
2022-10-26T21:33:07.319Z,8.10
2022-10-26T21:38:12.467Z,8.10
2022-10-26T21:43:19.606Z,8.10
2022-10-26T21:48:25.625Z,8.10
2022-10-26T21:53:31.594Z,8.10
2022-10-26T21:58:37.513Z,8.10
2022-10-26T22:03:43.612Z,8.10
2022-10-26T22:08:48.947Z,8.00
2022-10-26T22:13:54.712Z,8.10
2022-10-26T22:19:02.492Z,8.00
2022-10-26T22:24:08.922Z,8.00
2022-10-26T22:29:14.091Z,8.00
2022-10-26T22:34:19.313Z,7.90
2022-10-26T22:39:25.588Z,7.90
2022-10-26T22:44:30.917Z,7.90
2022-10-26T22:49:36.097Z,7.90
2022-10-26T23:06:33.262Z,7.70
2022-10-26T23:11:39.678Z,7.70
2022-10-26T23:16:44.936Z,7.70
2022-10-26T23:21:50.152Z,7.70
2022-10-26T23:26:55.516Z,7.80
2022-10-26T23:32:00.651Z,7.70
2022-10-26T23:42:31.701Z,7.80
2022-10-26T23:47:36.854Z,7.80
2022-10-26T23:52:42.098Z,7.80
2022-10-26T23:57:47.669Z,7.90
